sensor_id;sensor_type;location;lat;lon;timestamp;pressure;altitude;pressure_sealevel;temperature;humidity
50852;BME280;43953;45.508;-122.806;2022-12-11T00:00:04;98928.25;;;11.28;67.11
50852;BME280;43953;45.508;-122.806;2022-12-11T00:00:38;98928.78;;;11.25;67.27
50852;BME280;43953;45.508;-122.806;2022-12-11T00:01:11;98919.06;;;11.24;67.39
50852;BME280;43953;45.508;-122.806;2022-12-11T00:01:43;98926.59;;;11.22;67.17
50852;BME280;43953;45.508;-122.806;2022-12-11T00:02:15;98920.41;;;11.22;67.73
50852;BME280;43953;45.508;-122.806;2022-12-11T00:02:47;98925.78;;;11.22;67.47
50852;BME280;43953;45.508;-122.806;2022-12-11T00:03:18;98922.28;;;11.21;67.83
50852;BME280;43953;45.508;-122.806;2022-12-11T00:03:50;98931.97;;;11.22;67.53
50852;BME280;43953;45.508;-122.806;2022-12-11T00:04:22;98926.31;;;11.24;67.91
50852;BME280;43953;45.508;-122.806;2022-12-11T00:04:54;98927.97;;;11.25;67.60
50852;BME280;43953;45.508;-122.806;2022-12-11T00:05:26;98930.66;;;11.25;67.89
50852;BME280;43953;45.508;-122.806;2022-12-11T00:05:57;98931.72;;;11.24;67.60
50852;BME280;43953;45.508;-122.806;2022-12-11T00:06:32;98927.41;;;11.23;67.56
50852;BME280;43953;45.508;-122.806;2022-12-11T00:07:04;98932.78;;;11.23;67.76
50852;BME280;43953;45.508;-122.806;2022-12-11T00:07:36;98930.38;;;11.21;67.74
50852;BME280;43953;45.508;-122.806;2022-12-11T00:08:07;98930.38;;;11.21;67.77
50852;BME280;43953;45.508;-122.806;2022-12-11T00:08:39;98930.88;;;11.18;67.78
50852;BME280;43953;45.508;-122.806;2022-12-11T00:09:11;98937.06;;;11.19;67.74
50852;BME280;43953;45.508;-122.806;2022-12-11T00:09:43;98933.81;;;11.16;68.16
50852;BME280;43953;45.508;-122.806;2022-12-11T00:10:15;98933.81;;;11.16;67.60
50852;BME280;43953;45.508;-122.806;2022-12-11T00:10:48;98932.44;;;11.14;67.86
50852;BME280;43953;45.508;-122.806;2022-12-11T00:11:21;98927.31;;;11.12;67.63
50852;BME280;43953;45.508;-122.806;2022-12-11T00:11:53;98938.09;;;11.12;67.79
50852;BME280;43953;45.508;-122.806;2022-12-11T00:12:24;98938.91;;;11.13;67.68
50852;BME280;43953;45.508;-122.806;2022-12-11T00:12:56;98945.91;;;11.14;67.68
50852;BME280;43953;45.508;-122.806;2022-12-11T00:13:28;98933.53;;;11.13;68.04
50852;BME280;43953;45.508;-122.806;2022-12-11T00:13:59;98945.34;;;11.12;67.60
50852;BME280;43953;45.508;-122.806;2022-12-11T00:14:32;98937.25;;;11.07;67.57
50852;BME280;43953;45.508;-122.806;2022-12-11T00:15:04;98940.16;;;11.05;67.16
50852;BME280;43953;45.508;-122.806;2022-12-11T00:15:37;98936.66;;;11.05;67.94
50852;BME280;43953;45.508;-122.806;2022-12-11T00:16:09;98940.44;;;11.04;67.66
50852;BME280;43953;45.508;-122.806;2022-12-11T00:16:41;98936.66;;;11.05;68.06
50852;BME280;43953;45.508;-122.806;2022-12-11T00:17:12;98938.78;;;11.03;68.18
50852;BME280;43953;45.508;-122.806;2022-12-11T00:17:44;98939.88;;;11.02;67.83
50852;BME280;43953;45.508;-122.806;2022-12-11T00:18:16;98936.09;;;11.03;67.79
50852;BME280;43953;45.508;-122.806;2022-12-11T00:18:47;98938.78;;;11.03;67.88
50852;BME280;43953;45.508;-122.806;2022-12-11T00:19:19;98942.56;;;11.02;67.67
50852;BME280;43953;45.508;-122.806;2022-12-11T00:19:51;98939.88;;;11.02;68.10
50852;BME280;43953;45.508;-122.806;2022-12-11T00:20:23;98938.00;;;11.02;68.35
50852;BME280;43953;45.508;-122.806;2022-12-11T00:20:58;98937.19;;;11.02;68.04
50852;BME280;43953;45.508;-122.806;2022-12-11T00:21:30;98940.94;;;11.01;67.91
50852;BME280;43953;45.508;-122.806;2022-12-11T00:22:02;98939.88;;;11.02;67.90
50852;BME280;43953;45.508;-122.806;2022-12-11T00:22:37;98939.06;;;11.01;67.93
50852;BME280;43953;45.508;-122.806;2022-12-11T00:23:08;98933.41;;;11.03;68.20
50852;BME280;43953;45.508;-122.806;2022-12-11T00:23:43;98936.09;;;11.03;68.00
50852;BME280;43953;45.508;-122.806;2022-12-11T00:24:18;98940.44;;;11.04;67.76
50852;BME280;43953;45.508;-122.806;2022-12-11T00:24:50;98936.66;;;11.05;67.78
50852;BME280;43953;45.508;-122.806;2022-12-11T00:25:22;98938.28;;;11.06;68.04
50852;BME280;43953;45.508;-122.806;2022-12-11T00:25:54;98937.47;;;11.05;67.65
50852;BME280;43953;45.508;-122.806;2022-12-11T00:26:26;98936.66;;;11.05;67.74
50852;BME280;43953;45.508;-122.806;2022-12-11T00:26:58;98931.28;;;11.05;67.59
50852;BME280;43953;45.508;-122.806;2022-12-11T00:27:30;98938.56;;;11.04;67.46
50852;BME280;43953;45.508;-122.806;2022-12-11T00:28:04;98932.59;;;11.02;67.91
50852;BME280;43953;45.508;-122.806;2022-12-11T00:28:36;98937.19;;;11.02;67.50
50852;BME280;43953;45.508;-122.806;2022-12-11T00:29:09;98939.88;;;11.02;67.82
50852;BME280;43953;45.508;-122.806;2022-12-11T00:29:44;98936.38;;;11.01;68.05
50852;BME280;43953;45.508;-122.806;2022-12-11T00:30:16;98940.13;;;11.00;67.92
50852;BME280;43953;45.508;-122.806;2022-12-11T00:30:48;98931.22;;;11.00;67.62
50852;BME280;43953;45.508;-122.806;2022-12-11T00:31:21;98942.00;;;11.00;67.84
50852;BME280;43953;45.508;-122.806;2022-12-11T00:31:53;98940.38;;;10.99;67.39
50852;BME280;43953;45.508;-122.806;2022-12-11T00:32:25;98938.78;;;10.98;67.88
50852;BME280;43953;45.508;-122.806;2022-12-11T00:32:57;98943.31;;;10.97;67.74
50852;BME280;43953;45.508;-122.806;2022-12-11T00:33:29;98939.81;;;10.97;67.47
50852;BME280;43953;45.508;-122.806;2022-12-11T00:34:01;98937.63;;;10.93;67.72
50852;BME280;43953;45.508;-122.806;2022-12-11T00:34:33;98940.31;;;10.93;67.32
50852;BME280;43953;45.508;-122.806;2022-12-11T00:35:04;98935.44;;;10.90;67.25
50852;BME280;43953;45.508;-122.806;2022-12-11T00:35:44;98943.00;;;10.88;67.57
50852;BME280;43953;45.508;-122.806;2022-12-11T00:36:19;98941.34;;;10.87;67.40
50852;BME280;43953;45.508;-122.806;2022-12-11T00:36:51;98941.34;;;10.87;67.98
50852;BME280;43953;45.508;-122.806;2022-12-11T00:37:23;98936.78;;;10.88;68.02
50852;BME280;43953;45.508;-122.806;2022-12-11T00:37:55;98946.50;;;10.89;67.81
50852;BME280;43953;45.508;-122.806;2022-12-11T00:38:27;98934.91;;;10.88;67.45
50852;BME280;43953;45.508;-122.806;2022-12-11T00:39:00;98938.41;;;10.89;67.42
50852;BME280;43953;45.508;-122.806;2022-12-11T00:39:32;98936.22;;;10.86;67.53
50852;BME280;43953;45.508;-122.806;2022-12-11T00:40:04;98938.09;;;10.85;67.81
50852;BME280;43953;45.508;-122.806;2022-12-11T00:40:39;98938.94;;;10.86;67.55
50852;BME280;43953;45.508;-122.806;2022-12-11T00:41:11;98937.28;;;10.85;67.30
50852;BME280;43953;45.508;-122.806;2022-12-11T00:41:43;98943.75;;;10.84;67.11
50852;BME280;43953;45.508;-122.806;2022-12-11T00:42:15;98940.25;;;10.83;67.28
50852;BME280;43953;45.508;-122.806;2022-12-11T00:43:25;98939.09;;;10.79;67.45
50852;BME280;43953;45.508;-122.806;2022-12-11T00:43:57;98936.41;;;10.79;67.51
50852;BME280;43953;45.508;-122.806;2022-12-11T00:44:29;98936.69;;;10.78;67.81
50852;BME280;43953;45.508;-122.806;2022-12-11T00:45:00;98937.50;;;10.78;67.72
50852;BME280;43953;45.508;-122.806;2022-12-11T00:45:35;98941.25;;;10.77;67.48
50852;BME280;43953;45.508;-122.806;2022-12-11T00:46:08;98941.25;;;10.77;68.06
50852;BME280;43953;45.508;-122.806;2022-12-11T00:46:39;98945.00;;;10.76;67.80
50852;BME280;43953;45.508;-122.806;2022-12-11T00:47:11;98943.38;;;10.75;68.04
50852;BME280;43953;45.508;-122.806;2022-12-11T00:47:43;98946.06;;;10.75;67.67
50852;BME280;43953;45.508;-122.806;2022-12-11T00:48:14;98943.38;;;10.75;67.90
50852;BME280;43953;45.508;-122.806;2022-12-11T00:48:46;98941.75;;;10.74;67.93
50852;BME280;43953;45.508;-122.806;2022-12-11T00:49:20;98944.69;;;10.73;67.70
50852;BME280;43953;45.508;-122.806;2022-12-11T00:49:51;98945.50;;;10.73;68.00
50852;BME280;43953;45.508;-122.806;2022-12-11T00:50:23;98950.88;;;10.73;67.60
50852;BME280;43953;45.508;-122.806;2022-12-11T00:50:55;98951.16;;;10.72;67.69
50852;BME280;43953;45.508;-122.806;2022-12-11T00:51:26;98947.38;;;10.73;67.71
50852;BME280;43953;45.508;-122.806;2022-12-11T00:51:58;98941.69;;;10.69;67.48
50852;BME280;43953;45.508;-122.806;2022-12-11T00:52:30;98952.47;;;10.69;67.63
50852;BME280;43953;45.508;-122.806;2022-12-11T00:53:03;98958.09;;;10.67;67.62
50852;BME280;43953;45.508;-122.806;2022-12-11T00:53:35;98959.16;;;10.66;67.44
50852;BME280;43953;45.508;-122.806;2022-12-11T00:54:07;98962.66;;;10.67;67.40
50852;BME280;43953;45.508;-122.806;2022-12-11T00:54:39;98958.34;;;10.66;67.56
50852;BME280;43953;45.508;-122.806;2022-12-11T00:55:59;98960.69;;;10.57;67.21
50852;BME280;43953;45.508;-122.806;2022-12-11T00:56:31;98959.06;;;10.56;67.76
50852;BME280;43953;45.508;-122.806;2022-12-11T00:57:03;98960.91;;;10.56;68.06
50852;BME280;43953;45.508;-122.806;2022-12-11T00:57:34;98950.41;;;10.54;67.53
50852;BME280;43953;45.508;-122.806;2022-12-11T00:58:06;98955.53;;;10.56;67.95
50852;BME280;43953;45.508;-122.806;2022-12-11T00:58:38;98953.69;;;10.56;68.10
50852;BME280;43953;45.508;-122.806;2022-12-11T00:59:10;98963.59;;;10.56;68.27
50852;BME280;43953;45.508;-122.806;2022-12-11T00:59:42;98958.22;;;10.56;67.84
50852;BME280;43953;45.508;-122.806;2022-12-11T01:00:13;98952.03;;;10.55;67.59
50852;BME280;43953;45.508;-122.806;2022-12-11T01:00:45;98959.88;;;10.57;67.74
50852;BME280;43953;45.508;-122.806;2022-12-11T01:01:21;98963.59;;;10.56;67.59
50852;BME280;43953;45.508;-122.806;2022-12-11T01:01:53;98960.63;;;10.52;67.71
50852;BME280;43953;45.508;-122.806;2022-12-11T01:02:24;98962.75;;;10.50;67.41
50852;BME280;43953;45.508;-122.806;2022-12-11T01:02:56;98966.25;;;10.51;67.35
50852;BME280;43953;45.508;-122.806;2022-12-11T01:03:28;98960.88;;;10.51;67.62
50852;BME280;43953;45.508;-122.806;2022-12-11T01:04:00;98963.56;;;10.51;67.48
50852;BME280;43953;45.508;-122.806;2022-12-11T01:04:34;98966.25;;;10.51;67.75
50852;BME280;43953;45.508;-122.806;2022-12-11T01:05:08;98961.94;;;10.50;67.45
50852;BME280;43953;45.508;-122.806;2022-12-11T01:05:39;98960.06;;;10.50;67.73
50852;BME280;43953;45.508;-122.806;2022-12-11T01:06:16;98961.94;;;10.50;67.55
50852;BME280;43953;45.508;-122.806;2022-12-11T01:06:48;98965.44;;;10.50;67.91
50852;BME280;43953;45.508;-122.806;2022-12-11T01:07:19;98962.75;;;10.50;67.61
50852;BME280;43953;45.508;-122.806;2022-12-11T01:07:51;98958.19;;;10.51;67.81
50852;BME280;43953;45.508;-122.806;2022-12-11T01:08:23;98964.38;;;10.51;67.71
50852;BME280;43953;45.508;-122.806;2022-12-11T01:08:55;98956.53;;;10.50;68.08
50852;BME280;43953;45.508;-122.806;2022-12-11T01:09:45;98958.19;;;10.51;67.92
50852;BME280;43953;45.508;-122.806;2022-12-11T01:10:35;98960.88;;;10.51;67.75
50852;BME280;43953;45.508;-122.806;2022-12-11T01:11:09;98955.50;;;10.51;68.09
50852;BME280;43953;45.508;-122.806;2022-12-11T01:11:42;98960.63;;;10.52;67.77
50852;BME280;43953;45.508;-122.806;2022-12-11T01:12:14;98959.81;;;10.52;67.99
50852;BME280;43953;45.508;-122.806;2022-12-11T01:12:45;98964.13;;;10.53;67.93
50852;BME280;43953;45.508;-122.806;2022-12-11T01:13:17;98960.63;;;10.52;68.16
50852;BME280;43953;45.508;-122.806;2022-12-11T01:13:49;98972.19;;;10.53;67.89
50852;BME280;43953;45.508;-122.806;2022-12-11T01:14:21;98962.25;;;10.53;67.77
50852;BME280;43953;45.508;-122.806;2022-12-11T01:14:53;98969.25;;;10.54;67.89
50852;BME280;43953;45.508;-122.806;2022-12-11T01:15:31;98965.75;;;10.54;67.25
50852;BME280;43953;45.508;-122.806;2022-12-11T01:16:11;98963.56;;;10.51;67.79
50852;BME280;43953;45.508;-122.806;2022-12-11T01:16:42;98968.16;;;10.50;67.83
50852;BME280;43953;45.508;-122.806;2022-12-11T01:17:14;98965.44;;;10.50;67.73
50852;BME280;43953;45.508;-122.806;2022-12-11T01:17:45;98975.13;;;10.51;68.17
50852;BME280;43953;45.508;-122.806;2022-12-11T01:18:17;98966.81;;;10.53;67.93
50852;BME280;43953;45.508;-122.806;2022-12-11T01:18:49;98974.63;;;10.54;67.83
50852;BME280;43953;45.508;-122.806;2022-12-11T01:19:21;98974.13;;;10.57;67.95
50852;BME280;43953;45.508;-122.806;2022-12-11T01:19:53;98974.94;;;10.58;67.60
50852;BME280;43953;45.508;-122.806;2022-12-11T01:20:26;98972.53;;;10.56;67.17
50852;BME280;43953;45.508;-122.806;2022-12-11T01:20:58;98977.91;;;10.56;67.35
50852;BME280;43953;45.508;-122.806;2022-12-11T01:21:29;98981.63;;;10.55;67.17
50852;BME280;43953;45.508;-122.806;2022-12-11T01:22:01;98973.84;;;10.54;67.36
50852;BME280;43953;45.508;-122.806;2022-12-11T01:22:33;98982.94;;;10.53;67.29
50852;BME280;43953;45.508;-122.806;2022-12-11T01:23:05;98988.31;;;10.53;67.27
50852;BME280;43953;45.508;-122.806;2022-12-11T01:23:38;98985.63;;;10.53;67.73
50852;BME280;43953;45.508;-122.806;2022-12-11T01:24:10;98986.72;;;10.52;67.16
50852;BME280;43953;45.508;-122.806;2022-12-11T01:24:42;98982.41;;;10.51;67.09
50852;BME280;43953;45.508;-122.806;2022-12-11T01:25:14;98988.03;;;10.49;66.99
50852;BME280;43953;45.508;-122.806;2022-12-11T01:25:45;98994.22;;;10.50;67.29
50852;BME280;43953;45.508;-122.806;2022-12-11T01:26:17;98988.03;;;10.49;67.21
50852;BME280;43953;45.508;-122.806;2022-12-11T01:26:49;98984.53;;;10.48;67.62
50852;BME280;43953;45.508;-122.806;2022-12-11T01:27:21;98992.88;;;10.47;67.59
50852;BME280;43953;45.508;-122.806;2022-12-11T01:27:54;98996.38;;;10.47;67.95
50852;BME280;43953;45.508;-122.806;2022-12-11T01:28:26;98987.22;;;10.48;67.86
50852;BME280;43953;45.508;-122.806;2022-12-11T01:28:58;98997.97;;;10.48;67.37
50852;BME280;43953;45.508;-122.806;2022-12-11T01:29:30;98999.06;;;10.47;67.75
50852;BME280;43953;45.508;-122.806;2022-12-11T01:30:04;98996.38;;;10.47;67.69
50852;BME280;43953;45.508;-122.806;2022-12-11T01:30:40;99001.75;;;10.47;67.74
50852;BME280;43953;45.508;-122.806;2022-12-11T01:31:15;99003.38;;;10.48;67.95
50852;BME280;43953;45.508;-122.806;2022-12-11T01:31:47;99011.19;;;10.50;67.93
50852;BME280;43953;45.508;-122.806;2022-12-11T01:32:19;99005.56;;;10.52;67.92
50852;BME280;43953;45.508;-122.806;2022-12-11T01:32:51;99006.13;;;10.54;67.62
50852;BME280;43953;45.508;-122.806;2022-12-11T01:33:22;99000.75;;;10.54;67.62
50852;BME280;43953;45.508;-122.806;2022-12-11T01:33:55;98996.97;;;10.55;67.85
50852;BME280;43953;45.508;-122.806;2022-12-11T01:34:30;99010.69;;;10.53;67.41
50852;BME280;43953;45.508;-122.806;2022-12-11T01:35:04;99007.16;;;10.53;67.33
50852;BME280;43953;45.508;-122.806;2022-12-11T01:35:38;99002.28;;;10.50;67.42
50852;BME280;43953;45.508;-122.806;2022-12-11T01:36:13;99010.63;;;10.48;67.88
50852;BME280;43953;45.508;-122.806;2022-12-11T01:36:45;99004.16;;;10.49;67.81
50852;BME280;43953;45.508;-122.806;2022-12-11T01:37:17;99006.06;;;10.48;67.92
50852;BME280;43953;45.508;-122.806;2022-12-11T01:37:48;99014.69;;;10.51;67.81
50852;BME280;43953;45.508;-122.806;2022-12-11T01:38:20;99012.81;;;10.51;68.03
50852;BME280;43953;45.508;-122.806;2022-12-11T01:38:52;99008.25;;;10.52;67.81
50852;BME280;43953;45.508;-122.806;2022-12-11T01:39:24;99019.00;;;10.52;68.04
50852;BME280;43953;45.508;-122.806;2022-12-11T01:39:56;99013.38;;;10.53;68.05
50852;BME280;43953;45.508;-122.806;2022-12-11T01:40:28;99015.25;;;10.53;67.68
50852;BME280;43953;45.508;-122.806;2022-12-11T01:41:00;99019.00;;;10.52;67.73
50852;BME280;43953;45.508;-122.806;2022-12-11T01:41:31;99017.38;;;10.51;67.69
50852;BME280;43953;45.508;-122.806;2022-12-11T01:42:16;99014.69;;;10.51;67.36
50852;BME280;43953;45.508;-122.806;2022-12-11T01:42:48;99013.31;;;10.48;67.66
50852;BME280;43953;45.508;-122.806;2022-12-11T01:43:19;99022.47;;;10.47;67.66
50852;BME280;43953;45.508;-122.806;2022-12-11T01:44:02;99021.63;;;10.46;67.98
50852;BME280;43953;45.508;-122.806;2022-12-11T01:45:22;99018.38;;;10.44;67.84
50852;BME280;43953;45.508;-122.806;2022-12-11T01:45:55;99018.38;;;10.44;68.33
50852;BME280;43953;45.508;-122.806;2022-12-11T01:46:28;99019.19;;;10.45;68.09
50852;BME280;43953;45.508;-122.806;2022-12-11T01:47:00;99019.19;;;10.45;68.09
50852;BME280;43953;45.508;-122.806;2022-12-11T01:47:32;99020.00;;;10.45;67.83
50852;BME280;43953;45.508;-122.806;2022-12-11T01:48:38;99028.09;;;10.45;67.97
50852;BME280;43953;45.508;-122.806;2022-12-11T01:49:12;99021.31;;;10.43;67.81
50852;BME280;43953;45.508;-122.806;2022-12-11T01:49:44;99020.25;;;10.44;68.17
50852;BME280;43953;45.508;-122.806;2022-12-11T01:50:16;99017.56;;;10.44;67.98
50852;BME280;43953;45.508;-122.806;2022-12-11T01:50:51;99026.38;;;10.39;67.28
50852;BME280;43953;45.508;-122.806;2022-12-11T01:51:24;99032.84;;;10.38;67.90
50852;BME280;43953;45.508;-122.806;2022-12-11T01:52:28;99025.00;;;10.37;67.72
50852;BME280;43953;45.508;-122.806;2022-12-11T01:53:00;99030.16;;;10.38;68.10
50852;BME280;43953;45.508;-122.806;2022-12-11T01:53:35;99033.88;;;10.37;68.50
50852;BME280;43953;45.508;-122.806;2022-12-11T01:54:11;99023.13;;;10.37;68.71
50852;BME280;43953;45.508;-122.806;2022-12-11T01:54:44;99023.13;;;10.37;68.17
50852;BME280;43953;45.508;-122.806;2022-12-11T01:55:18;99028.81;;;10.41;68.37
50852;BME280;43953;45.508;-122.806;2022-12-11T01:55:52;99033.97;;;10.42;68.17
50852;BME280;43953;45.508;-122.806;2022-12-11T01:56:26;99031.28;;;10.42;67.87
50852;BME280;43953;45.508;-122.806;2022-12-11T01:57:04;99033.38;;;10.40;68.50
50852;BME280;43953;45.508;-122.806;2022-12-11T01:57:40;99032.56;;;10.40;68.33
50852;BME280;43953;45.508;-122.806;2022-12-11T01:58:15;99033.38;;;10.40;68.42
50852;BME280;43953;45.508;-122.806;2022-12-11T01:58:53;99031.50;;;10.41;68.55
50852;BME280;43953;45.508;-122.806;2022-12-11T01:59:28;99031.50;;;10.41;68.52
50852;BME280;43953;45.508;-122.806;2022-12-11T02:00:01;99035.03;;;10.41;68.80
50852;BME280;43953;45.508;-122.806;2022-12-11T02:00:33;99031.28;;;10.42;68.53
50852;BME280;43953;45.508;-122.806;2022-12-11T02:01:05;99033.97;;;10.42;68.47
50852;BME280;43953;45.508;-122.806;2022-12-11T02:01:47;99038.28;;;10.43;68.57
50852;BME280;43953;45.508;-122.806;2022-12-11T02:02:27;99038.28;;;10.43;68.71
50852;BME280;43953;45.508;-122.806;2022-12-11T02:03:00;99036.38;;;10.44;68.37
50852;BME280;43953;45.508;-122.806;2022-12-11T02:03:32;99034.53;;;10.44;68.51
50852;BME280;43953;45.508;-122.806;2022-12-11T02:04:06;99022.94;;;10.44;68.05
50852;BME280;43953;45.508;-122.806;2022-12-11T02:04:39;99042.59;;;10.44;68.50
50852;BME280;43953;45.508;-122.806;2022-12-11T02:05:13;99044.47;;;10.44;68.68
50852;BME280;43953;45.508;-122.806;2022-12-11T02:05:45;99036.38;;;10.44;68.53
50852;BME280;43953;45.508;-122.806;2022-12-11T02:06:37;99037.47;;;10.43;68.60
50852;BME280;43953;45.508;-122.806;2022-12-11T02:07:09;99042.03;;;10.42;68.26
50852;BME280;43953;45.508;-122.806;2022-12-11T02:07:45;99050.91;;;10.43;68.52
50852;BME280;43953;45.508;-122.806;2022-12-11T02:08:18;99045.53;;;10.43;68.82
50852;BME280;43953;45.508;-122.806;2022-12-11T02:08:50;99044.47;;;10.44;68.22
50852;BME280;43953;45.508;-122.806;2022-12-11T02:09:31;99044.97;;;10.41;68.52
50852;BME280;43953;45.508;-122.806;2022-12-11T02:10:03;99048.22;;;10.43;68.50
50852;BME280;43953;45.508;-122.806;2022-12-11T02:11:12;99043.34;;;10.40;69.22
50852;BME280;43953;45.508;-122.806;2022-12-11T02:12:12;99047.09;;;10.39;69.28
50852;BME280;43953;45.508;-122.806;2022-12-11T02:13:12;99053.53;;;10.38;69.02
50852;BME280;43953;45.508;-122.806;2022-12-11T02:14:05;99052.16;;;10.35;68.91
50852;BME280;43953;45.508;-122.806;2022-12-11T02:16:20;99060.78;;;10.37;68.95
50852;BME280;43953;45.508;-122.806;2022-12-11T02:17:03;99055.41;;;10.37;68.97
50852;BME280;43953;45.508;-122.806;2022-12-11T02:18:40;99067.25;;;10.36;69.02
50852;BME280;43953;45.508;-122.806;2022-12-11T02:19:30;99070.75;;;10.37;68.67
50852;BME280;43953;45.508;-122.806;2022-12-11T02:21:19;99071.00;;;10.35;68.95
50852;BME280;43953;45.508;-122.806;2022-12-11T02:21:55;99072.84;;;10.35;69.32
50852;BME280;43953;45.508;-122.806;2022-12-11T02:26:20;99072.84;;;10.35;68.55
50852;BME280;43953;45.508;-122.806;2022-12-11T02:28:28;99082.81;;;10.34;68.90
50852;BME280;43953;45.508;-122.806;2022-12-11T02:29:02;99080.13;;;10.34;69.29
50852;BME280;43953;45.508;-122.806;2022-12-11T02:30:08;99073.13;;;10.33;69.34
50852;BME280;43953;45.508;-122.806;2022-12-11T02:30:41;99080.13;;;10.34;69.53
50852;BME280;43953;45.508;-122.806;2022-12-11T02:32:21;99081.19;;;10.33;69.34
50852;BME280;43953;45.508;-122.806;2022-12-11T02:32:56;99076.84;;;10.32;69.13
50852;BME280;43953;45.508;-122.806;2022-12-11T02:33:37;99085.50;;;10.34;69.27
50852;BME280;43953;45.508;-122.806;2022-12-11T02:34:39;99081.19;;;10.33;69.32
50852;BME280;43953;45.508;-122.806;2022-12-11T02:35:32;99083.06;;;10.33;69.21
50852;BME280;43953;45.508;-122.806;2022-12-11T02:36:07;99088.69;;;10.31;68.88
50852;BME280;43953;45.508;-122.806;2022-12-11T02:36:44;99091.13;;;10.33;69.07
50852;BME280;43953;45.508;-122.806;2022-12-11T02:37:22;99088.69;;;10.31;68.98
50852;BME280;43953;45.508;-122.806;2022-12-11T02:38:02;99079.22;;;10.29;68.95
50852;BME280;43953;45.508;-122.806;2022-12-11T02:38:38;99093.25;;;10.31;68.86
50852;BME280;43953;45.508;-122.806;2022-12-11T02:39:13;99091.63;;;10.30;68.92
50852;BME280;43953;45.508;-122.806;2022-12-11T02:39:48;99088.94;;;10.30;68.93
50852;BME280;43953;45.508;-122.806;2022-12-11T02:40:27;99088.69;;;10.31;69.27
50852;BME280;43953;45.508;-122.806;2022-12-11T02:41:01;99090.78;;;10.29;69.10
50852;BME280;43953;45.508;-122.806;2022-12-11T02:41:35;99097.81;;;10.30;69.06
50852;BME280;43953;45.508;-122.806;2022-12-11T02:42:08;99090.56;;;10.31;69.02
50852;BME280;43953;45.508;-122.806;2022-12-11T02:42:42;99093.47;;;10.29;69.19
50852;BME280;43953;45.508;-122.806;2022-12-11T02:43:15;99097.81;;;10.30;68.69
50852;BME280;43953;45.508;-122.806;2022-12-11T02:43:49;99092.44;;;10.30;69.08
50852;BME280;43953;45.508;-122.806;2022-12-11T02:44:26;99091.63;;;10.30;68.96
50852;BME280;43953;45.508;-122.806;2022-12-11T02:45:00;99089.75;;;10.30;69.03
50852;BME280;43953;45.508;-122.806;2022-12-11T02:45:36;99094.31;;;10.30;69.27
50852;BME280;43953;45.508;-122.806;2022-12-11T02:46:11;99093.25;;;10.31;69.22
50852;BME280;43953;45.508;-122.806;2022-12-11T02:46:44;99089.75;;;10.30;68.93
50852;BME280;43953;45.508;-122.806;2022-12-11T02:47:17;99092.44;;;10.30;69.30
50852;BME280;43953;45.508;-122.806;2022-12-11T02:47:51;99092.44;;;10.30;69.22
50852;BME280;43953;45.508;-122.806;2022-12-11T02:48:23;99092.44;;;10.30;69.00
50852;BME280;43953;45.508;-122.806;2022-12-11T02:48:56;99099.69;;;10.30;68.84
50852;BME280;43953;45.508;-122.806;2022-12-11T02:49:29;99096.75;;;10.31;68.88
50852;BME280;43953;45.508;-122.806;2022-12-11T02:50:07;99092.44;;;10.30;68.95
50852;BME280;43953;45.508;-122.806;2022-12-11T02:50:46;99088.94;;;10.30;68.79
50852;BME280;43953;45.508;-122.806;2022-12-11T02:51:32;99087.28;;;10.29;68.89
50852;BME280;43953;45.508;-122.806;2022-12-11T02:52:06;99090.78;;;10.29;68.55
50852;BME280;43953;45.508;-122.806;2022-12-11T02:52:42;99092.44;;;10.30;68.80
50852;BME280;43953;45.508;-122.806;2022-12-11T02:53:19;99091.63;;;10.30;68.72
50852;BME280;43953;45.508;-122.806;2022-12-11T02:53:54;99097.81;;;10.30;68.93
50852;BME280;43953;45.508;-122.806;2022-12-11T02:54:32;99103.19;;;10.30;69.09
50852;BME280;43953;45.508;-122.806;2022-12-11T02:55:08;99103.19;;;10.30;68.72
50852;BME280;43953;45.508;-122.806;2022-12-11T02:55:41;99098.63;;;10.31;68.84
50852;BME280;43953;45.508;-122.806;2022-12-11T02:56:45;99101.56;;;10.29;68.85
50852;BME280;43953;45.508;-122.806;2022-12-11T02:58:25;99099.94;;;10.28;68.75
50852;BME280;43953;45.508;-122.806;2022-12-11T02:59:04;99099.94;;;10.28;69.02
50852;BME280;43953;45.508;-122.806;2022-12-11T02:59:38;99101.56;;;10.29;68.83
50852;BME280;43953;45.508;-122.806;2022-12-11T03:00:12;99100.75;;;10.29;68.70
50852;BME280;43953;45.508;-122.806;2022-12-11T03:00:46;99099.69;;;10.30;68.76
50852;BME280;43953;45.508;-122.806;2022-12-11T03:01:17;99093.47;;;10.29;69.00
50852;BME280;43953;45.508;-122.806;2022-12-11T03:01:49;99102.41;;;10.30;69.01
50852;BME280;43953;45.508;-122.806;2022-12-11T03:02:21;99103.19;;;10.30;68.72
50852;BME280;43953;45.508;-122.806;2022-12-11T03:02:53;99100.50;;;10.30;68.81
50852;BME280;43953;45.508;-122.806;2022-12-11T03:03:25;99093.25;;;10.31;69.15
50852;BME280;43953;45.508;-122.806;2022-12-11T03:03:58;99102.13;;;10.31;68.69
50852;BME280;43953;45.508;-122.806;2022-12-11T03:04:31;99094.06;;;10.31;68.87
50852;BME280;43953;45.508;-122.806;2022-12-11T03:05:04;99093.25;;;10.31;68.69
50852;BME280;43953;45.508;-122.806;2022-12-11T03:05:36;99097.81;;;10.30;68.71
50852;BME280;43953;45.508;-122.806;2022-12-11T03:06:12;99093.47;;;10.29;69.07
50852;BME280;43953;45.508;-122.806;2022-12-11T03:06:50;99094.56;;;10.28;69.01
50852;BME280;43953;45.508;-122.806;2022-12-11T03:07:27;99090.78;;;10.29;68.75
50852;BME280;43953;45.508;-122.806;2022-12-11T03:08:02;99093.47;;;10.29;68.70
50852;BME280;43953;45.508;-122.806;2022-12-11T03:08:33;99091.63;;;10.30;68.77
50852;BME280;43953;45.508;-122.806;2022-12-11T03:09:05;99087.06;;;10.30;68.63